createdAt,value
2018-07-09T00:02:24.734Z,22.53
2018-07-09T00:04:53.522Z,22.46
2018-07-09T00:07:22.118Z,22.40
2018-07-09T00:09:50.806Z,22.36
2018-07-09T00:12:19.434Z,22.31
2018-07-09T00:14:54.351Z,22.26
2018-07-09T00:17:22.968Z,22.22
2018-07-09T00:19:51.796Z,22.18
2018-07-09T00:22:20.717Z,22.17
2018-07-09T00:24:49.349Z,22.13
2018-07-09T00:27:18.552Z,22.08
2018-07-09T00:29:47.315Z,22.03
2018-07-09T00:32:16.324Z,22.01
2018-07-09T00:34:45.587Z,22.02
2018-07-09T00:37:14.460Z,22.00
2018-07-09T00:39:43.204Z,22.00
2018-07-09T00:42:11.995Z,21.96
2018-07-09T00:44:41.014Z,21.95
2018-07-09T00:47:10.114Z,21.98
2018-07-09T00:49:38.775Z,21.97
2018-07-09T00:52:07.500Z,21.93
2018-07-09T00:54:36.155Z,21.90
2018-07-09T00:57:05.193Z,21.87
2018-07-09T00:59:34.919Z,21.84
2018-07-09T01:02:03.849Z,21.85
2018-07-09T01:04:32.791Z,21.84
2018-07-09T01:07:01.686Z,21.80
2018-07-09T01:09:30.331Z,21.74
2018-07-09T01:12:10.316Z,21.72
2018-07-09T01:14:39.654Z,21.68
2018-07-09T01:17:08.310Z,21.67
2018-07-09T01:19:37.003Z,21.64
2018-07-09T01:22:06.321Z,21.60
2018-07-09T01:24:34.990Z,21.59
2018-07-09T01:27:03.665Z,21.51
2018-07-09T01:29:32.712Z,21.48
2018-07-09T01:32:01.315Z,21.43
2018-07-09T01:34:29.970Z,21.40
2018-07-09T01:36:58.583Z,21.38
2018-07-09T01:39:28.433Z,21.37
2018-07-09T01:41:57.382Z,21.41
2018-07-09T01:44:26.254Z,21.41
2018-07-09T01:46:54.923Z,21.43
2018-07-09T01:49:23.627Z,21.45
2018-07-09T01:51:52.586Z,21.43
2018-07-09T01:54:21.251Z,21.38
2018-07-09T01:56:50.469Z,21.33
2018-07-09T01:59:19.088Z,21.25
2018-07-09T02:01:47.662Z,21.20
2018-07-09T02:04:16.616Z,21.16
2018-07-09T02:06:45.546Z,21.14
2018-07-09T02:09:14.130Z,21.19
2018-07-09T02:11:43.226Z,21.14
2018-07-09T02:14:13.143Z,21.10
2018-07-09T02:16:43.669Z,21.06
2018-07-09T02:19:13.348Z,21.07
2018-07-09T02:21:42.278Z,21.04
2018-07-09T02:24:10.990Z,21.05
2018-07-09T02:26:39.909Z,21.01
2018-07-09T02:29:08.898Z,20.96
2018-07-09T02:31:37.618Z,20.97
2018-07-09T02:34:06.314Z,20.94
2018-07-09T02:36:34.963Z,20.91
2018-07-09T02:39:05.444Z,20.90
2018-07-09T02:41:34.449Z,20.85
2018-07-09T02:44:03.089Z,20.80
2018-07-09T02:46:32.050Z,20.79
2018-07-09T02:49:01.023Z,20.74
2018-07-09T02:51:31.167Z,20.70
2018-07-09T02:53:59.919Z,20.68
2018-07-09T02:56:28.511Z,20.65
2018-07-09T02:58:57.418Z,20.61
2018-07-09T03:01:26.690Z,20.58
2018-07-09T03:03:55.589Z,20.53
2018-07-09T03:06:24.239Z,20.48
2018-07-09T03:08:52.916Z,20.40
2018-07-09T03:11:21.784Z,20.39
2018-07-09T03:13:50.627Z,20.36
2018-07-09T03:16:19.239Z,20.36
2018-07-09T03:18:48.019Z,20.38
2018-07-09T03:21:16.657Z,20.33
2018-07-09T03:23:45.289Z,20.31
2018-07-09T03:26:14.276Z,20.32
2018-07-09T03:28:43.371Z,20.29
2018-07-09T03:31:11.972Z,20.14
2018-07-09T03:33:41.026Z,20.08
2018-07-09T03:36:09.633Z,20.10
2018-07-09T03:38:38.283Z,20.05
2018-07-09T03:41:07.475Z,20.08
2018-07-09T03:43:36.141Z,20.08
2018-07-09T03:46:05.042Z,20.05
2018-07-09T03:48:34.515Z,19.99
2018-07-09T03:51:03.156Z,19.93
2018-07-09T03:53:32.079Z,19.88
2018-07-09T03:56:00.767Z,19.83
2018-07-09T03:58:29.615Z,19.78
2018-07-09T04:00:58.962Z,19.71
2018-07-09T04:03:27.599Z,19.73
2018-07-09T04:05:56.388Z,19.67
2018-07-09T04:08:25.293Z,19.65
2018-07-09T04:10:54.103Z,19.50
2018-07-09T04:13:22.716Z,19.39
2018-07-09T04:15:52.022Z,19.40
2018-07-09T04:18:25.210Z,19.33
2018-07-09T04:20:55.831Z,19.30
2018-07-09T04:23:24.415Z,19.33
2018-07-09T04:25:53.784Z,19.36
2018-07-09T04:28:23.394Z,19.38
2018-07-09T04:30:52.055Z,19.38
2018-07-09T04:33:20.729Z,19.33
2018-07-09T04:35:49.596Z,19.31
2018-07-09T04:38:18.897Z,19.38
2018-07-09T04:40:47.548Z,19.41
2018-07-09T04:43:16.203Z,19.43
2018-07-09T04:45:45.430Z,19.46
2018-07-09T04:48:14.515Z,19.46
2018-07-09T04:50:43.197Z,19.50
2018-07-09T04:53:11.805Z,19.49
2018-07-09T04:55:40.411Z,19.48
2018-07-09T04:58:09.025Z,19.49
2018-07-09T05:00:37.674Z,19.51
2018-07-09T05:03:07.000Z,19.48
2018-07-09T05:05:35.683Z,19.44
2018-07-09T05:08:05.199Z,19.47
2018-07-09T05:10:34.303Z,19.34
2018-07-09T05:13:03.341Z,19.36
2018-07-09T05:15:31.945Z,19.39
2018-07-09T05:18:00.872Z,19.45
2018-07-09T05:20:30.068Z,19.45
2018-07-09T05:22:58.762Z,19.39
2018-07-09T05:25:27.460Z,19.41
2018-07-09T05:27:56.373Z,19.43
2018-07-09T05:30:25.169Z,19.41
2018-07-09T05:32:55.213Z,19.42
2018-07-09T05:35:23.963Z,19.51
2018-07-09T05:37:53.575Z,19.56
2018-07-09T05:40:22.648Z,19.50
2018-07-09T05:42:51.336Z,19.52
2018-07-09T05:45:20.048Z,19.57
2018-07-09T05:47:48.776Z,19.63
2018-07-09T05:50:17.643Z,19.65
2018-07-09T05:52:46.463Z,19.65
2018-07-09T05:55:15.362Z,19.72
2018-07-09T05:57:45.027Z,19.75
2018-07-09T06:00:14.298Z,19.67
2018-07-09T06:02:43.075Z,19.55
2018-07-09T06:05:12.495Z,19.43
2018-07-09T06:07:42.120Z,19.43
2018-07-09T06:10:10.828Z,19.35
2018-07-09T06:12:39.887Z,19.35
2018-07-09T06:15:08.550Z,19.35
2018-07-09T06:17:37.440Z,19.46
2018-07-09T06:20:06.841Z,19.56
2018-07-09T06:22:35.709Z,19.55
2018-07-09T06:25:04.836Z,19.41
2018-07-09T06:27:33.522Z,19.41
2018-07-09T06:30:02.222Z,19.51
2018-07-09T06:32:30.885Z,19.59
2018-07-09T06:34:59.534Z,19.39
2018-07-09T06:37:28.210Z,19.39
2018-07-09T06:39:57.307Z,19.42
2018-07-09T06:42:26.143Z,19.50
2018-07-09T06:44:55.514Z,19.57
2018-07-09T06:47:24.499Z,19.60
2018-07-09T06:50:00.039Z,19.74
2018-07-09T06:52:28.703Z,19.91
2018-07-09T06:54:57.612Z,20.13
2018-07-09T06:57:26.323Z,20.39
2018-07-09T06:59:54.951Z,20.51
2018-07-09T07:02:23.685Z,20.70
2018-07-09T07:04:52.346Z,20.88
2018-07-09T07:07:21.085Z,21.01
2018-07-09T07:09:49.815Z,21.17
2018-07-09T07:12:18.403Z,21.42
2018-07-09T07:14:47.364Z,21.73
2018-07-09T07:17:16.194Z,22.00
2018-07-09T07:19:44.845Z,22.30
2018-07-09T07:22:13.468Z,22.55
2018-07-09T07:24:42.402Z,22.86
2018-07-09T07:27:11.154Z,23.15
2018-07-09T07:29:40.016Z,23.41
2018-07-09T07:32:08.636Z,23.80
2018-07-09T07:34:37.619Z,23.96
2018-07-09T07:37:06.260Z,23.73
2018-07-09T07:39:34.917Z,23.46
2018-07-09T07:42:03.868Z,23.49
2018-07-09T07:44:32.758Z,23.48
2018-07-09T07:47:01.409Z,23.60
2018-07-09T07:49:30.086Z,23.55
2018-07-09T07:51:58.779Z,23.72
2018-07-09T07:54:27.465Z,23.84
2018-07-09T07:56:56.399Z,23.95
2018-07-09T07:59:25.092Z,23.90
2018-07-09T08:01:54.182Z,23.81
2018-07-09T08:04:23.374Z,23.70
2018-07-09T08:06:52.437Z,23.73
2018-07-09T08:09:21.379Z,23.77
2018-07-09T08:11:50.173Z,23.87
2018-07-09T08:14:19.567Z,23.78
2018-07-09T08:16:49.167Z,24.07
2018-07-09T08:19:18.801Z,24.05
2018-07-09T08:21:48.197Z,24.22
2018-07-09T08:24:17.175Z,24.54
2018-07-09T08:26:45.822Z,24.91
2018-07-09T08:29:14.753Z,25.23
2018-07-09T08:31:43.435Z,25.43
2018-07-09T08:34:12.461Z,25.70
2018-07-09T08:36:41.305Z,26.07
2018-07-09T08:39:10.010Z,25.76
2018-07-09T08:41:38.666Z,25.40
2018-07-09T08:44:07.740Z,25.21
2018-07-09T08:46:36.734Z,24.97
2018-07-09T08:49:05.445Z,25.01
2018-07-09T08:51:34.060Z,24.82
2018-07-09T08:54:02.767Z,24.75
2018-07-09T08:56:31.393Z,24.47
2018-07-09T08:59:00.265Z,24.27
2018-07-09T09:01:29.232Z,24.67
2018-07-09T09:03:58.037Z,25.18
2018-07-09T09:06:26.770Z,25.69
2018-07-09T09:08:55.953Z,26.14
2018-07-09T09:11:24.755Z,26.73
2018-07-09T09:13:53.579Z,27.23
2018-07-09T09:16:22.432Z,27.48
2018-07-09T09:18:52.108Z,28.00
2018-07-09T09:21:20.886Z,27.72
2018-07-09T09:23:49.603Z,27.56
2018-07-09T09:26:18.356Z,27.52
2018-07-09T09:28:47.097Z,27.18
2018-07-09T09:31:15.742Z,26.86
2018-07-09T09:33:44.825Z,26.25
2018-07-09T09:36:13.873Z,25.86
2018-07-09T09:38:42.915Z,25.67
2018-07-09T09:41:11.570Z,25.38
2018-07-09T09:43:40.570Z,24.76
2018-07-09T09:46:09.286Z,24.56
2018-07-09T09:48:37.978Z,24.37
2018-07-09T09:51:07.226Z,24.38
2018-07-09T09:53:35.872Z,24.37
2018-07-09T09:56:04.663Z,24.24
2018-07-09T09:58:33.681Z,23.82
2018-07-09T10:01:02.989Z,23.73
2018-07-09T10:03:31.603Z,23.65
2018-07-09T10:06:00.522Z,23.68
2018-07-09T10:08:29.194Z,23.90
2018-07-09T10:10:57.877Z,24.06
2018-07-09T10:13:26.641Z,24.17
2018-07-09T10:15:55.501Z,24.30
2018-07-09T10:18:24.210Z,24.30
2018-07-09T10:20:53.261Z,24.30
2018-07-09T10:23:22.209Z,24.29
2018-07-09T10:25:51.272Z,24.09
2018-07-09T10:28:20.482Z,23.65
2018-07-09T10:30:49.227Z,23.65
2018-07-09T10:33:17.853Z,23.71
2018-07-09T10:35:46.931Z,23.71
2018-07-09T10:38:15.603Z,23.49
2018-07-09T10:40:44.459Z,23.15
2018-07-09T10:43:13.294Z,22.99
2018-07-09T10:45:42.010Z,23.15
2018-07-09T10:48:10.699Z,23.59
2018-07-09T10:50:39.452Z,24.07
2018-07-09T10:53:08.480Z,24.75
2018-07-09T10:55:37.470Z,25.63
2018-07-09T10:58:06.330Z,26.54
2018-07-09T11:00:35.427Z,27.18
2018-07-09T11:03:04.086Z,27.45
2018-07-09T11:05:33.002Z,27.13
2018-07-09T11:08:01.995Z,26.14
2018-07-09T11:10:31.305Z,26.13
2018-07-09T11:13:00.255Z,26.00
2018-07-09T11:15:28.896Z,25.90
2018-07-09T11:17:57.614Z,25.84
2018-07-09T11:20:26.396Z,25.17
2018-07-09T11:22:55.513Z,25.34
2018-07-09T11:25:24.307Z,25.26
2018-07-09T11:27:53.007Z,25.11
2018-07-09T11:30:22.044Z,25.08
2018-07-09T11:32:51.322Z,25.24
2018-07-09T11:35:20.229Z,25.59
2018-07-09T11:37:48.961Z,25.91
2018-07-09T11:40:17.597Z,26.69
2018-07-09T11:42:46.666Z,26.53
2018-07-09T11:45:15.449Z,26.18
2018-07-09T11:47:44.151Z,25.86
2018-07-09T11:50:13.375Z,25.43
2018-07-09T11:52:42.359Z,25.12
2018-07-09T11:55:11.370Z,24.64
2018-07-09T11:57:39.998Z,24.70
2018-07-09T12:00:08.676Z,25.13
2018-07-09T12:02:37.364Z,25.79
2018-07-09T12:05:06.367Z,26.59
2018-07-09T12:07:35.299Z,26.79
2018-07-09T12:10:04.013Z,26.81
2018-07-09T12:12:34.021Z,26.30
2018-07-09T12:15:03.771Z,25.74
2018-07-09T12:17:32.574Z,25.43
2018-07-09T12:20:01.695Z,25.22
2018-07-09T12:22:30.969Z,25.11
2018-07-09T12:24:59.609Z,24.85
2018-07-09T12:27:28.257Z,24.64
2018-07-09T12:29:57.334Z,24.29
2018-07-09T12:32:26.075Z,24.28
2018-07-09T12:34:54.721Z,24.19
2018-07-09T12:37:23.554Z,24.06
2018-07-09T12:39:52.229Z,24.16
2018-07-09T12:42:20.899Z,24.20
2018-07-09T12:44:49.526Z,24.19
2018-07-09T12:47:18.138Z,24.25
2018-07-09T12:49:47.057Z,24.30
2018-07-09T12:52:15.773Z,24.32
2018-07-09T12:54:44.717Z,24.38
2018-07-09T12:57:13.951Z,24.58
2018-07-09T12:59:43.256Z,25.55
2018-07-09T13:02:11.965Z,26.84
2018-07-09T13:04:40.713Z,27.73
2018-07-09T13:07:09.385Z,27.89
2018-07-09T13:09:38.114Z,28.00
2018-07-09T13:12:07.157Z,28.06
2018-07-09T13:14:35.907Z,28.11
2018-07-09T13:17:04.668Z,27.31
2018-07-09T13:19:33.780Z,26.65
2018-07-09T13:22:02.440Z,26.09
2018-07-09T13:24:31.100Z,25.75
2018-07-09T13:27:00.047Z,25.49
2018-07-09T13:29:28.862Z,25.79
2018-07-09T13:31:57.545Z,27.80
2018-07-09T13:34:26.435Z,29.27
2018-07-09T13:36:55.090Z,30.46
2018-07-09T13:39:23.987Z,28.70
2018-07-09T13:41:52.679Z,27.67
2018-07-09T13:44:21.373Z,26.65
2018-07-09T13:46:50.164Z,27.72
2018-07-09T13:49:18.904Z,28.20
2018-07-09T13:51:47.637Z,27.71
2018-07-09T13:54:16.397Z,27.17
2018-07-09T13:56:45.779Z,26.47
2018-07-09T13:59:14.936Z,26.71
2018-07-09T14:01:43.972Z,26.35
2018-07-09T14:04:12.728Z,26.84
2018-07-09T14:06:41.838Z,26.98
2018-07-09T14:09:10.509Z,25.89
2018-07-09T14:11:39.207Z,27.66
2018-07-09T14:14:08.377Z,28.60
2018-07-09T14:16:37.040Z,29.29
2018-07-09T14:19:16.914Z,29.48
2018-07-09T14:21:45.534Z,29.04
2018-07-09T14:24:14.215Z,28.33
2018-07-09T14:26:42.915Z,27.55
2018-07-09T14:29:11.577Z,26.90
2018-07-09T14:31:40.559Z,26.26
2018-07-09T14:34:09.314Z,26.05
2018-07-09T14:36:38.033Z,26.62
2018-07-09T14:39:06.945Z,27.28
2018-07-09T14:41:35.627Z,27.71
2018-07-09T14:44:04.601Z,27.66
2018-07-09T14:46:33.349Z,27.32
2018-07-09T14:49:02.596Z,26.82
2018-07-09T14:51:31.662Z,26.54
2018-07-09T14:54:00.663Z,26.24
2018-07-09T14:56:29.360Z,26.18
2018-07-09T14:58:58.080Z,26.11
2018-07-09T15:01:26.714Z,25.95
2018-07-09T15:03:56.243Z,25.73
2018-07-09T15:06:25.564Z,25.48
2018-07-09T15:08:54.293Z,25.37
2018-07-09T15:11:23.009Z,25.48
2018-07-09T15:13:51.777Z,25.42
2018-07-09T15:16:20.459Z,25.35
2018-07-09T15:18:49.151Z,25.37
2018-07-09T15:21:17.814Z,24.95
2018-07-09T15:23:46.949Z,24.82
2018-07-09T15:26:15.948Z,24.71
2018-07-09T15:28:44.625Z,24.61
2018-07-09T15:31:13.332Z,24.52
2018-07-09T15:33:41.961Z,24.56
2018-07-09T15:36:10.630Z,24.59
2018-07-09T15:38:39.281Z,24.43
2018-07-09T15:41:07.955Z,24.48
2018-07-09T15:43:48.658Z,24.49
2018-07-09T15:46:17.291Z,24.35
2018-07-09T15:48:46.341Z,24.14
2018-07-09T15:51:15.041Z,24.19
2018-07-09T15:53:44.000Z,24.30
2018-07-09T15:56:12.680Z,24.24
2018-07-09T15:58:41.401Z,24.09
2018-07-09T16:01:10.368Z,23.93
2018-07-09T16:03:39.342Z,23.78
2018-07-09T16:06:07.977Z,23.70
2018-07-09T16:08:36.659Z,23.67
2018-07-09T16:11:05.335Z,23.65
2018-07-09T16:13:34.053Z,23.66
2018-07-09T16:16:02.962Z,23.70
2018-07-09T16:18:31.918Z,23.79
2018-07-09T16:21:00.578Z,23.77
2018-07-09T16:23:29.698Z,23.74
2018-07-09T16:25:58.430Z,23.74
2018-07-09T16:28:27.300Z,23.70
2018-07-09T16:30:56.213Z,23.69
2018-07-09T16:33:24.832Z,23.57
2018-07-09T16:35:53.927Z,23.54
2018-07-09T16:38:22.853Z,23.59
2018-07-09T16:40:51.842Z,23.44
2018-07-09T16:43:20.753Z,23.44
2018-07-09T16:45:49.772Z,23.46
2018-07-09T16:48:19.056Z,23.43
2018-07-09T16:50:47.881Z,23.43
2018-07-09T16:53:17.280Z,23.51
2018-07-09T16:55:46.054Z,23.53
2018-07-09T16:58:14.708Z,23.67
2018-07-09T17:00:44.113Z,23.65
2018-07-09T17:03:13.015Z,23.69
2018-07-09T17:05:41.792Z,23.71
2018-07-09T17:08:10.994Z,23.69
2018-07-09T17:10:39.898Z,23.70
2018-07-09T17:13:09.021Z,23.53
2018-07-09T17:15:38.072Z,23.55
2018-07-09T17:18:07.511Z,23.52
2018-07-09T17:20:36.474Z,23.54
2018-07-09T17:23:05.401Z,23.46
2018-07-09T17:25:34.499Z,23.41
2018-07-09T17:28:03.533Z,23.39
2018-07-09T17:30:32.264Z,23.34
2018-07-09T17:33:01.002Z,23.25
2018-07-09T17:35:29.826Z,23.20
2018-07-09T17:37:59.225Z,23.22
2018-07-09T17:40:28.089Z,23.21
2018-07-09T17:42:57.637Z,23.22
2018-07-09T17:45:28.318Z,23.22
2018-07-09T17:47:58.105Z,23.22
2018-07-09T17:50:26.892Z,23.22
2018-07-09T17:52:55.951Z,23.26
2018-07-09T17:55:25.055Z,23.33
2018-07-09T17:57:53.854Z,23.36
2018-07-09T18:00:22.616Z,23.32
2018-07-09T18:02:51.369Z,23.19
2018-07-09T18:05:20.043Z,23.20
2018-07-09T18:07:48.712Z,23.06
2018-07-09T18:10:17.444Z,22.97
2018-07-09T18:12:46.148Z,22.95
2018-07-09T18:15:14.876Z,22.86
2018-07-09T18:17:43.761Z,22.77
2018-07-09T18:20:12.489Z,22.70
2018-07-09T18:22:41.777Z,22.60
2018-07-09T18:25:10.481Z,22.56
2018-07-09T18:27:39.210Z,22.48
2018-07-09T18:30:07.894Z,22.45
2018-07-09T18:32:36.779Z,22.39
2018-07-09T18:35:05.818Z,22.33
2018-07-09T18:37:34.533Z,22.26
2018-07-09T18:40:03.540Z,22.19
2018-07-09T18:42:32.339Z,22.18
2018-07-09T18:45:01.114Z,22.18
2018-07-09T18:47:29.834Z,22.09
2018-07-09T18:49:58.510Z,22.04
2018-07-09T18:52:27.662Z,21.90
2018-07-09T18:54:56.751Z,21.88
2018-07-09T18:57:26.438Z,21.83
2018-07-09T18:59:55.484Z,21.75
2018-07-09T19:02:24.480Z,21.68
2018-07-09T19:04:53.150Z,21.55
2018-07-09T19:07:24.559Z,21.49
2018-07-09T19:09:53.675Z,21.48
2018-07-09T19:12:22.814Z,21.48
2018-07-09T19:14:52.458Z,21.45
2018-07-09T19:17:46.065Z,21.42
2018-07-09T19:20:26.388Z,21.38
2018-07-09T19:22:53.763Z,21.33
2018-07-09T19:25:21.100Z,21.30
2018-07-09T19:27:48.715Z,21.27
2018-07-09T19:30:16.050Z,21.16
2018-07-09T19:32:43.434Z,21.12
2018-07-09T19:35:10.837Z,21.13
2018-07-09T19:37:39.112Z,21.08
2018-07-09T19:40:06.468Z,21.03
2018-07-09T19:42:33.904Z,21.01
2018-07-09T19:45:01.291Z,20.95
2018-07-09T19:47:28.659Z,20.91
2018-07-09T19:49:55.987Z,20.88
2018-07-09T19:52:23.457Z,20.90
2018-07-09T19:54:50.907Z,20.91
2018-07-09T19:57:18.358Z,20.92
2018-07-09T19:59:45.972Z,20.91
2018-07-09T20:02:13.401Z,20.94
2018-07-09T20:04:41.089Z,20.93
2018-07-09T20:07:08.434Z,20.96
2018-07-09T20:10:42.132Z,20.89
2018-07-09T20:13:14.590Z,20.84
2018-07-09T20:15:47.522Z,20.79
2018-07-09T20:18:14.890Z,20.76
2018-07-09T20:20:42.271Z,20.69
2018-07-09T20:23:09.962Z,20.65
2018-07-09T20:25:37.322Z,20.62
2018-07-09T20:28:04.666Z,20.57
2018-07-09T20:30:32.744Z,20.54
2018-07-09T20:33:00.047Z,20.49
2018-07-09T20:35:27.710Z,20.49
2018-07-09T20:37:55.041Z,20.49
2018-07-09T20:40:22.625Z,20.46
2018-07-09T20:42:50.662Z,20.47
2018-07-09T20:45:18.059Z,20.44
2018-07-09T20:47:45.419Z,20.40
2018-07-09T20:50:12.752Z,20.40
2018-07-09T20:52:40.380Z,20.29
2018-07-09T20:55:07.759Z,20.24
2018-07-09T20:57:35.409Z,20.22
2018-07-09T21:00:02.755Z,20.22
2018-07-09T21:02:30.425Z,20.20
2018-07-09T21:04:57.806Z,20.17
2018-07-09T21:07:25.130Z,20.14
2018-07-09T21:09:52.565Z,20.11
2018-07-09T21:12:19.901Z,20.11
2018-07-09T21:14:47.569Z,20.09
2018-07-09T21:17:14.899Z,20.07
2018-07-09T21:19:42.206Z,20.03
2018-07-09T21:22:09.680Z,19.93
2018-07-09T21:24:36.987Z,19.89
2018-07-09T21:27:04.335Z,19.90
2018-07-09T21:29:31.647Z,19.91
2018-07-09T21:31:59.420Z,19.85
2018-07-09T21:34:27.156Z,19.85
2018-07-09T21:36:54.505Z,19.81
2018-07-09T21:39:21.911Z,19.78
2018-07-09T21:41:49.423Z,19.76
2018-07-09T21:44:16.774Z,19.74
2018-07-09T21:46:44.122Z,19.73
2018-07-09T21:49:11.437Z,19.75
2018-07-09T21:51:39.335Z,19.75
2018-07-09T21:54:06.714Z,19.75
2018-07-09T21:56:34.467Z,19.78
2018-07-09T21:59:04.644Z,19.66
2018-07-09T22:01:31.992Z,19.65
2018-07-09T22:03:59.309Z,19.61
2018-07-09T22:06:26.701Z,19.53
2018-07-09T22:08:54.108Z,19.50
2018-07-09T22:11:21.437Z,19.50
2018-07-09T22:13:48.812Z,19.49
2018-07-09T22:16:16.233Z,19.47
2018-07-09T22:18:43.578Z,19.47
2018-07-09T22:21:10.935Z,19.50
2018-07-09T22:23:38.258Z,19.51
2018-07-09T22:26:05.602Z,19.49
2018-07-09T22:28:32.942Z,19.46
2018-07-09T22:31:01.658Z,19.42
2018-07-09T22:33:30.577Z,19.38
2018-07-09T22:35:59.864Z,19.39
2018-07-09T22:38:28.558Z,19.39
2018-07-09T22:40:57.248Z,19.40
2018-07-09T22:43:37.155Z,19.44
2018-07-09T22:46:05.770Z,19.42
2018-07-09T22:48:34.616Z,19.38
2018-07-09T22:51:03.386Z,19.36
2018-07-09T22:53:31.978Z,19.27
2018-07-09T22:56:12.060Z,19.26
2018-07-09T22:58:41.926Z,19.19
2018-07-09T23:01:11.128Z,19.04
2018-07-09T23:03:41.110Z,18.93
2018-07-09T23:06:10.314Z,18.82
2018-07-09T23:08:39.592Z,18.86
2018-07-09T23:11:20.071Z,18.89
2018-07-09T23:17:12.985Z,18.90
2018-07-09T23:21:58.581Z,18.95
2018-07-09T23:24:26.461Z,18.92
2018-07-09T23:26:55.092Z,18.92
2018-07-09T23:29:22.819Z,18.93
2018-07-09T23:31:50.446Z,18.83
2018-07-09T23:34:18.437Z,18.80
2018-07-09T23:36:45.939Z,18.82
2018-07-09T23:39:13.584Z,18.79
2018-07-09T23:41:40.942Z,18.70
2018-07-09T23:44:08.278Z,18.67
2018-07-09T23:46:35.629Z,18.67
2018-07-09T23:49:03.024Z,18.57
2018-07-09T23:51:31.330Z,18.44
2018-07-09T23:53:59.312Z,18.32
2018-07-09T23:59:45.677Z,18.24
